Time;durP1;ratioP1;P1;durP2;ratioP2;P2;SDS_P1;SDS_P2;PMS_P1;PMS_P2;Temp;Humidity;BMP_temperature;BMP_pressure;BME280_temperature;BME280_humidity;BME280_pressure;Samples;Min_cycle;Max_cycle;Signal;HPM_P1;HPM_P2
2024/01/21 00:00:29;;;;;;;3.23;2.60;;;20.70;52.30;;;;;;5055649;28;20289;-70
2024/01/21 00:02:54;;;;;;;2.77;2.00;;;20.70;52.30;;;;;;5073672;28;20446;-69
2024/01/21 00:05:20;;;;;;;2.93;2.63;;;20.70;52.30;;;;;;5073517;28;20239;-71
2024/01/21 00:07:46;;;;;;;2.63;2.40;;;20.70;52.30;;;;;;5073303;28;20696;-71
2024/01/21 00:10:11;;;;;;;2.40;2.13;;;20.70;52.30;;;;;;5073392;28;20605;-71
2024/01/21 00:12:37;;;;;;;3.10;2.80;;;20.70;52.30;;;;;;5074303;28;20189;-71
2024/01/21 00:15:04;;;;;;;2.97;2.10;;;20.70;52.30;;;;;;5073433;28;20200;-71
2024/01/21 00:17:30;;;;;;;2.83;2.40;;;20.70;52.30;;;;;;5073605;28;20500;-71
2024/01/21 00:19:56;;;;;;;2.50;2.30;;;20.70;52.30;;;;;;5073211;28;20432;-70
2024/01/21 00:22:22;;;;;;;2.97;2.50;;;20.70;52.30;;;;;;5073495;28;20176;-71
2024/01/21 00:24:47;;;;;;;2.70;2.30;;;20.70;52.40;;;;;;5073724;28;20570;-70
2024/01/21 00:27:13;;;;;;;2.20;2.00;;;20.70;52.40;;;;;;5073101;28;20550;-71
2024/01/21 00:29:39;;;;;;;3.33;2.77;;;20.70;52.40;;;;;;5073853;28;20563;-71
2024/01/21 00:32:04;;;;;;;2.33;2.10;;;20.70;52.40;;;;;;5073152;28;20247;-71
2024/01/21 00:34:30;;;;;;;2.30;2.00;;;20.70;52.40;;;;;;5074120;28;20176;-71
2024/01/21 00:36:55;;;;;;;2.53;2.33;;;20.70;52.40;;;;;;5073024;28;20182;-70
2024/01/21 00:39:21;;;;;;;3.13;2.40;;;20.70;52.30;;;;;;5072797;28;20611;-71
2024/01/21 00:41:47;;;;;;;2.20;2.00;;;20.70;52.30;;;;;;5073665;28;20224;-71
2024/01/21 00:44:12;;;;;;;3.30;2.37;;;20.70;52.30;;;;;;5072894;28;20166;-70
2024/01/21 00:46:38;;;;;;;2.60;2.40;;;20.70;52.30;;;;;;5073037;28;20216;-71
2024/01/21 00:49:04;;;;;;;2.57;2.37;;;20.70;52.30;;;;;;5073081;28;20210;-71
2024/01/21 00:51:30;;;;;;;2.87;2.57;;;20.70;52.90;;;;;;5073217;28;20178;-71
2024/01/21 00:53:55;;;;;;;3.33;2.70;;;20.70;52.30;;;;;;5073229;28;21017;-70
2024/01/21 00:56:21;;;;;;;2.57;2.37;;;20.70;52.30;;;;;;5073162;28;20171;-70
2024/01/21 00:58:46;;;;;;;3.10;2.50;;;20.70;52.30;;;;;;5076745;28;20181;-70
2024/01/21 01:01:12;;;;;;;4.73;2.60;;;20.70;52.30;;;;;;5077154;28;20269;-71
2024/01/21 01:03:38;;;;;;;2.50;2.30;;;20.70;52.30;;;;;;5076457;28;20182;-71
2024/01/21 01:06:04;;;;;;;4.10;2.50;;;20.70;52.30;;;;;;5077003;28;20255;-71
2024/01/21 01:08:30;;;;;;;3.33;2.10;;;20.70;52.40;;;;;;5076762;28;20202;-69
2024/01/21 01:10:55;;;;;;;2.40;2.20;;;20.70;52.40;;;;;;5076709;28;20438;-71
2024/01/21 01:13:21;;;;;;;2.33;2.13;;;20.60;52.30;;;;;;5076892;28;20178;-71
2024/01/21 01:15:47;;;;;;;3.10;2.33;;;20.60;52.30;;;;;;5076736;28;20189;-69
2024/01/21 01:18:14;;;;;;;2.23;1.90;;;20.70;52.40;;;;;;5076700;28;20204;-71
2024/01/21 01:20:39;;;;;;;1.80;1.70;;;20.60;52.30;;;;;;5077000;28;20198;-69
2024/01/21 01:23:05;;;;;;;2.50;2.30;;;20.70;52.40;;;;;;5076324;28;20401;-70
2024/01/21 01:25:31;;;;;;;4.60;2.53;;;20.60;52.30;;;;;;5076880;28;20592;-70
2024/01/21 01:27:57;;;;;;;3.30;2.60;;;20.60;52.30;;;;;;5075877;28;20576;-70
2024/01/21 01:30:22;;;;;;;2.73;2.23;;;20.60;52.30;;;;;;5076196;28;20186;-71
2024/01/21 01:32:48;;;;;;;2.77;2.20;;;20.60;52.30;;;;;;5058347;28;20174;-71
2024/01/21 01:35:14;;;;;;;3.43;2.57;;;20.60;52.30;;;;;;5075888;28;20253;-71
2024/01/21 01:37:39;;;;;;;3.07;2.40;;;20.60;52.40;;;;;;5076779;28;20710;-71
2024/01/21 01:40:09;;;;;;;2.47;2.27;;;20.60;52.30;;;;;;5076253;28;20194;-70
2024/01/21 01:42:34;;;;;;;2.53;2.00;;;20.60;52.40;;;;;;5076195;28;20170;-70
2024/01/21 01:45:00;;;;;;;2.60;1.90;;;20.60;52.40;;;;;;5076631;28;20598;-71
2024/01/21 01:47:26;;;;;;;2.43;2.23;;;20.60;52.40;;;;;;5058022;28;20198;-69
2024/01/21 01:49:54;;;;;;;2.97;2.50;;;20.60;52.40;;;;;;5076350;28;20544;-71
2024/01/21 01:52:19;;;;;;;2.30;1.90;;;20.60;52.40;;;;;;5076206;28;20412;-68
2024/01/21 01:54:46;;;;;;;2.43;2.20;;;20.60;52.40;;;;;;5075918;28;20900;-70
2024/01/21 01:57:15;;;;;;;2.77;2.27;;;20.60;52.40;;;;;;5076292;28;20170;-71
2024/01/21 01:59:41;;;;;;;2.47;2.27;;;20.60;52.40;;;;;;5075700;28;20895;-71
2024/01/21 02:02:07;;;;;;;3.40;2.53;;;20.60;52.40;;;;;;5076309;28;20413;-71
2024/01/21 02:04:33;;;;;;;3.40;2.17;;;20.60;52.40;;;;;;5076297;28;20197;-72
2024/01/21 02:06:59;;;;;;;2.63;2.30;;;20.60;52.40;;;;;;5075726;28;20993;-70
2024/01/21 02:09:25;;;;;;;3.07;2.50;;;20.60;52.40;;;;;;5056888;28;20536;-72
2024/01/21 02:11:51;;;;;;;2.27;1.90;;;20.60;52.40;;;;;;5075840;28;20242;-72
2024/01/21 02:14:16;;;;;;;2.93;2.63;;;20.60;52.40;;;;;;5075562;28;20179;-72
2024/01/21 02:16:42;;;;;;;2.53;2.23;;;20.60;52.40;;;;;;5076052;28;20260;-72
2024/01/21 02:19:21;;;;;;;2.60;2.23;;;20.60;52.40;;;;;;5075340;28;20202;-72
2024/01/21 02:21:47;;;;;;;2.83;2.43;;;20.60;52.40;;;;;;5075516;28;20169;-71
2024/01/21 02:24:12;;;;;;;2.47;2.20;;;20.60;52.40;;;;;;5076040;28;20785;-72
2024/01/21 02:26:38;;;;;;;3.20;2.40;;;20.50;52.30;;;;;;5075187;28;20269;-72
2024/01/21 02:29:04;;;;;;;2.73;2.23;;;20.50;52.30;;;;;;5076146;28;20217;-72
2024/01/21 02:31:29;;;;;;;2.97;2.13;;;20.50;52.40;;;;;;5075145;28;20413;-71
2024/01/21 02:33:55;;;;;;;2.47;2.27;;;20.50;52.40;;;;;;5075725;28;20177;-72
2024/01/21 02:36:21;;;;;;;3.70;2.50;;;20.50;52.40;;;;;;5075244;28;20594;-72
2024/01/21 02:38:46;;;;;;;3.50;2.37;;;20.50;52.40;;;;;;5074770;28;20588;-72
2024/01/21 02:41:12;;;;;;;2.27;2.00;;;20.50;52.40;;;;;;5075345;28;20171;-70
2024/01/21 02:43:37;;;;;;;3.00;2.40;;;20.50;52.40;;;;;;5057023;28;20178;-72
2024/01/21 02:46:03;;;;;;;3.93;2.07;;;20.50;52.50;;;;;;5074698;28;20224;-72
2024/01/21 02:48:28;;;;;;;2.93;2.60;;;20.50;52.40;;;;;;5074798;28;20205;-72
2024/01/21 02:50:54;;;;;;;3.30;2.47;;;20.50;52.40;;;;;;5056845;28;20297;-70
2024/01/21 02:53:20;;;;;;;4.00;2.17;;;20.50;52.40;;;;;;5074296;28;20232;-72
2024/01/21 02:55:45;;;;;;;2.57;2.37;;;20.50;52.40;;;;;;5074363;28;20182;-72
2024/01/21 02:58:11;;;;;;;2.87;2.27;;;20.50;52.40;;;;;;5074350;28;20853;-73
2024/01/21 03:00:36;;;;;;;2.50;2.20;;;20.50;52.40;;;;;;5074267;28;20206;-72
2024/01/21 03:03:02;;;;;;;2.50;2.30;;;20.50;52.40;;;;;;5074186;28;20202;-72
2024/01/21 03:05:28;;;;;;;2.53;2.33;;;20.50;52.40;;;;;;5073959;28;20182;-72
2024/01/21 03:07:53;;;;;;;2.67;2.40;;;20.50;52.40;;;;;;5073962;28;20209;-72
2024/01/21 03:10:19;;;;;;;2.50;2.30;;;20.50;52.40;;;;;;5073966;28;20190;-72
2024/01/21 03:12:44;;;;;;;3.00;2.17;;;20.50;52.40;;;;;;5073891;28;20175;-72
2024/01/21 03:15:10;;;;;;;2.43;2.00;;;20.50;52.40;;;;;;5073902;28;20798;-72
2024/01/21 03:17:35;;;;;;;2.17;1.83;;;20.50;52.40;;;;;;5073974;28;20198;-72
2024/01/21 03:20:01;;;;;;;2.50;1.93;;;20.50;52.40;;;;;;5072996;28;20229;-72
2024/01/21 03:22:27;;;;;;;2.20;2.00;;;20.50;52.40;;;;;;5073482;28;20189;-70
2024/01/21 03:24:53;;;;;;;2.40;2.20;;;20.50;52.40;;;;;;5073413;28;20646;-72
2024/01/21 03:27:19;;;;;;;3.47;2.53;;;20.50;52.40;;;;;;5054909;28;20459;-71
2024/01/21 03:29:44;;;;;;;2.23;1.80;;;20.50;52.40;;;;;;5073614;28;20205;-71
2024/01/21 03:32:10;;;;;;;2.70;2.07;;;20.50;52.40;;;;;;5054996;28;20179;-71
2024/01/21 03:34:41;;;;;;;2.50;2.30;;;20.50;52.40;;;;;;5073490;28;20530;-70
2024/01/21 03:37:07;;;;;;;2.23;2.03;;;20.50;52.40;;;;;;5073223;28;20267;-71
2024/01/21 03:39:32;;;;;;;3.43;2.13;;;20.50;52.40;;;;;;5073274;28;20990;-71
2024/01/21 03:41:58;;;;;;;2.23;2.03;;;20.50;52.40;;;;;;5073421;28;20185;-71
2024/01/21 03:44:24;;;;;;;2.43;2.20;;;20.50;52.40;;;;;;5072883;28;20205;-71
2024/01/21 03:46:49;;;;;;;2.60;2.30;;;20.50;52.40;;;;;;5073730;28;20188;-72
2024/01/21 03:49:15;;;;;;;2.60;2.40;;;20.50;52.40;;;;;;5072951;28;20464;-72
2024/01/21 03:51:41;;;;;;;2.03;1.83;;;20.50;52.40;;;;;;5073370;28;20175;-72
2024/01/21 03:54:06;;;;;;;2.67;2.43;;;20.50;52.40;;;;;;5072751;28;20969;-72
2024/01/21 03:56:32;;;;;;;2.37;2.07;;;20.50;52.40;;;;;;5072959;28;20196;-72
2024/01/21 03:58:57;;;;;;;1.93;1.73;;;20.50;52.40;;;;;;5073046;28;20185;-72
2024/01/21 04:01:23;;;;;;;2.70;2.37;;;20.50;52.40;;;;;;5073153;28;20253;-72
2024/01/21 04:03:48;;;;;;;3.77;3.23;;;20.50;52.40;;;;;;5072881;28;20182;-72
2024/01/21 04:06:14;;;;;;;2.30;2.10;;;20.50;52.40;;;;;;5072974;28;20179;-72
2024/01/21 04:08:40;;;;;;;3.13;2.33;;;20.50;52.40;;;;;;5072753;28;20202;-71
2024/01/21 04:11:05;;;;;;;3.03;2.23;;;20.50;52.40;;;;;;5072869;28;20562;-71
2024/01/21 04:13:32;;;;;;;2.63;2.23;;;20.50;52.40;;;;;;5073016;28;20175;-72
2024/01/21 04:15:59;;;;;;;3.10;2.43;;;20.50;52.40;;;;;;5072845;28;20196;-72
2024/01/21 04:18:24;;;;;;;2.40;2.10;;;20.50;52.40;;;;;;5073015;28;20424;-71
2024/01/21 04:20:50;;;;;;;2.60;2.23;;;20.50;52.40;;;;;;5072862;28;20440;-72
2024/01/21 04:23:15;;;;;;;2.20;2.00;;;20.50;52.40;;;;;;5072966;28;20178;-71
2024/01/21 04:25:41;;;;;;;2.30;2.10;;;20.50;52.40;;;;;;5072932;28;20186;-72
2024/01/21 04:28:06;;;;;;;2.40;1.83;;;20.50;52.40;;;;;;5072646;28;20563;-72
2024/01/21 04:30:32;;;;;;;2.30;2.00;;;20.50;52.40;;;;;;5072735;28;20201;-72
2024/01/21 04:32:58;;;;;;;2.40;2.00;;;20.50;52.40;;;;;;5078128;28;20202;-72
2024/01/21 04:35:23;;;;;;;2.63;2.23;;;20.50;52.40;;;;;;5079119;28;20184;-72
2024/01/21 04:37:49;;;;;;;2.17;1.97;;;20.50;52.40;;;;;;5079367;28;20291;-72
2024/01/21 04:40:14;;;;;;;1.93;1.80;;;20.50;52.40;;;;;;5079020;28;20268;-71
2024/01/21 04:42:40;;;;;;;2.53;2.13;;;20.50;52.40;;;;;;5078991;28;20753;-72
2024/01/21 04:45:06;;;;;;;2.30;1.80;;;20.50;52.40;;;;;;5079442;28;20174;-72
2024/01/21 04:47:32;;;;;;;2.30;2.10;;;20.50;52.40;;;;;;5079340;28;20244;-70
2024/01/21 04:49:57;;;;;;;2.90;2.23;;;20.50;52.40;;;;;;5061166;28;20467;-71
2024/01/21 04:52:23;;;;;;;2.53;2.13;;;20.50;52.40;;;;;;5079167;28;20241;-71
2024/01/21 04:54:48;;;;;;;2.47;2.23;;;20.50;52.40;;;;;;5079277;28;20182;-71
2024/01/21 04:57:14;;;;;;;2.50;2.07;;;20.50;52.40;;;;;;5079166;28;20174;-71
2024/01/21 04:59:40;;;;;;;2.47;2.27;;;20.50;52.40;;;;;;5078767;28;20284;-71
2024/01/21 05:02:05;;;;;;;2.50;1.83;;;20.50;52.40;;;;;;5060778;28;20243;-71
2024/01/21 05:04:31;;;;;;;2.50;1.90;;;20.50;52.40;;;;;;5078921;28;20170;-71
2024/01/21 05:06:56;;;;;;;2.37;1.83;;;20.50;52.40;;;;;;5060629;28;20186;-72
2024/01/21 05:09:22;;;;;;;3.07;2.23;;;20.50;52.40;;;;;;5078953;28;20575;-71
2024/01/21 05:11:47;;;;;;;2.63;2.13;;;20.50;52.40;;;;;;5078939;28;20261;-71
2024/01/21 05:14:13;;;;;;;2.30;2.10;;;20.50;52.40;;;;;;5078832;28;20174;-71
2024/01/21 05:16:40;;;;;;;2.70;2.50;;;20.50;52.40;;;;;;5078836;28;20727;-71
2024/01/21 05:19:05;;;;;;;2.13;1.93;;;20.50;52.40;;;;;;5079042;28;20284;-71
2024/01/21 05:21:31;;;;;;;3.73;2.30;;;20.50;52.40;;;;;;5078838;28;20554;-71
2024/01/21 05:23:57;;;;;;;2.50;2.03;;;20.50;52.40;;;;;;5078788;28;20751;-71
2024/01/21 05:26:23;;;;;;;2.63;2.20;;;20.40;52.30;;;;;;5078316;28;20452;-70
2024/01/21 05:28:48;;;;;;;2.73;2.33;;;20.40;52.30;;;;;;5078722;28;20595;-70
2024/01/21 05:31:14;;;;;;;2.40;2.17;;;20.50;52.40;;;;;;5079195;28;20174;-70
2024/01/21 05:33:40;;;;;;;2.30;2.10;;;20.50;52.40;;;;;;5078963;28;20265;-70
2024/01/21 05:36:06;;;;;;;2.43;2.00;;;20.50;52.40;;;;;;5078958;28;20244;-70
2024/01/21 05:38:32;;;;;;;2.50;2.10;;;20.40;52.40;;;;;;5078636;28;20247;-70
2024/01/21 05:40:57;;;;;;;2.20;2.00;;;20.40;52.40;;;;;;5078488;28;21264;-70
2024/01/21 05:43:23;;;;;;;2.30;1.97;;;20.40;52.40;;;;;;5076336;28;20174;-70
2024/01/21 05:45:49;;;;;;;2.00;1.67;;;20.40;52.40;;;;;;5075498;28;20182;-70
2024/01/21 05:48:14;;;;;;;1.80;1.70;;;20.40;52.40;;;;;;5075469;28;20201;-70
2024/01/21 05:50:40;;;;;;;2.00;1.80;;;20.40;52.40;;;;;;5075052;28;20680;-70
2024/01/21 05:53:06;;;;;;;2.80;2.30;;;20.40;52.40;;;;;;5075447;28;20170;-71
2024/01/21 05:55:32;;;;;;;2.70;2.23;;;20.40;52.40;;;;;;5057124;28;20249;-70
2024/01/21 05:57:58;;;;;;;2.63;2.37;;;20.40;52.40;;;;;;5057476;28;20480;-70
2024/01/21 06:00:24;;;;;;;2.60;1.90;;;20.40;52.40;;;;;;5075248;28;21013;-70
2024/01/21 06:02:51;;;;;;;1.90;1.70;;;20.40;52.40;;;;;;5075527;28;20785;-71
2024/01/21 06:05:17;;;;;;;2.47;2.13;;;20.40;52.40;;;;;;5075642;28;20178;-70
2024/01/21 06:07:44;;;;;;;3.10;1.73;;;20.40;52.50;;;;;;5075565;28;21034;-69
2024/01/21 06:10:10;;;;;;;2.27;2.00;;;20.40;52.50;;;;;;5075553;28;20194;-70
2024/01/21 06:12:36;;;;;;;2.40;2.20;;;20.40;52.50;;;;;;5057700;28;20433;-70
2024/01/21 06:15:03;;;;;;;2.07;1.77;;;20.40;52.40;;;;;;5057537;28;20412;-71
2024/01/21 06:17:28;;;;;;;1.43;1.33;;;20.40;52.40;;;;;;5075324;28;20444;-70
2024/01/21 06:19:54;;;;;;;2.47;2.27;;;20.40;52.40;;;;;;5075114;28;20432;-70
2024/01/21 06:22:19;;;;;;;2.30;2.03;;;20.40;52.50;;;;;;5074761;28;20205;-70
2024/01/21 06:24:45;;;;;;;2.53;2.00;;;20.40;52.40;;;;;;5075297;28;20174;-70
2024/01/21 06:27:11;;;;;;;2.27;1.80;;;20.40;52.40;;;;;;5074949;28;20649;-71
2024/01/21 06:29:36;;;;;;;3.40;2.70;;;20.40;52.40;;;;;;5074526;28;20190;-71
2024/01/21 06:32:02;;;;;;;1.90;1.80;;;20.40;52.40;;;;;;5074602;28;20588;-70
2024/01/21 06:34:28;;;;;;;2.53;2.33;;;20.40;52.40;;;;;;5074837;28;20671;-70
2024/01/21 06:36:53;;;;;;;1.87;1.77;;;20.40;52.30;;;;;;5074883;28;20679;-70
2024/01/21 06:39:19;;;;;;;2.00;1.80;;;20.40;52.30;;;;;;5074798;28;20281;-71
2024/01/21 06:41:44;;;;;;;1.87;1.77;;;20.40;52.30;;;;;;5074094;28;20234;-70
2024/01/21 06:44:10;;;;;;;2.27;2.07;;;20.40;52.90;;;;;;5074215;28;20193;-70
2024/01/21 06:46:36;;;;;;;1.80;1.70;;;20.40;52.30;;;;;;5072390;28;20214;-72
2024/01/21 06:49:01;;;;;;;2.30;2.10;;;20.40;52.30;;;;;;5071527;28;20460;-70
2024/01/21 06:51:46;;;;;;;1.90;1.80;;;20.50;52.40;;;;;;5071697;28;20171;-70
2024/01/21 06:54:15;;;;;;;2.43;2.20;;;20.50;52.40;;;;;;5071859;28;20159;-71
2024/01/21 06:56:41;;;;;;;2.20;2.00;;;20.50;52.40;;;;;;5071248;28;20477;-72
2024/01/21 06:59:06;;;;;;;2.13;1.93;;;20.50;52.50;;;;;;5071477;28;20791;-71
2024/01/21 07:01:32;;;;;;;2.37;2.17;;;20.50;52.50;;;;;;5053445;28;20174;-70
2024/01/21 07:03:57;;;;;;;3.60;1.83;;;20.50;52.50;;;;;;5071418;28;20179;-71
2024/01/21 07:06:23;;;;;;;1.80;1.70;;;20.50;52.50;;;;;;5071598;28;20179;-71
2024/01/21 07:08:48;;;;;;;2.40;1.83;;;20.50;52.40;;;;;;5071180;28;20201;-71
2024/01/21 07:11:14;;;;;;;3.20;1.93;;;20.50;52.40;;;;;;5071086;28;20601;-71
2024/01/21 07:13:40;;;;;;;2.10;1.60;;;20.60;52.40;;;;;;5070924;28;20170;-71
2024/01/21 07:16:05;;;;;;;2.10;1.90;;;20.60;52.40;;;;;;5070971;28;20280;-71
2024/01/21 07:18:31;;;;;;;2.60;2.37;;;20.60;52.40;;;;;;5071359;28;20174;-71
2024/01/21 07:20:56;;;;;;;3.13;2.50;;;20.60;52.40;;;;;;5070900;28;20322;-70
2024/01/21 07:23:22;;;;;;;2.80;2.23;;;20.60;52.40;;;;;;5071048;28;20174;-71
2024/01/21 07:25:48;;;;;;;2.70;1.97;;;20.60;52.30;;;;;;5071206;28;20196;-71
2024/01/21 07:28:15;;;;;;;3.27;2.20;;;20.60;52.40;;;;;;5070726;28;20198;-71
2024/01/21 07:30:41;;;;;;;7.80;2.27;;;20.60;52.30;;;;;;5070675;28;20186;-70
2024/01/21 07:33:06;;;;;;;4.27;2.93;;;20.60;52.30;;;;;;5070539;28;20405;-71
2024/01/21 07:35:32;;;;;;;4.30;2.60;;;20.60;52.30;;;;;;5070795;28;20434;-70
2024/01/21 07:37:58;;;;;;;11.03;3.33;;;20.60;52.30;;;;;;5070718;28;20170;-71
2024/01/21 07:40:24;;;;;;;5.30;3.60;;;20.60;52.20;;;;;;5070517;28;20435;-71
2024/01/21 07:42:49;;;;;;;5.60;5.00;;;20.60;52.30;;;;;;5070625;28;20182;-71
2024/01/21 07:45:15;;;;;;;5.73;4.60;;;20.60;52.20;;;;;;5069881;28;20232;-71
2024/01/21 07:47:41;;;;;;;7.73;6.23;;;20.60;52.10;;;;;;5070345;28;20200;-71
2024/01/21 07:50:07;;;;;;;4.73;4.10;;;20.60;52.10;;;;;;5070291;28;20681;-70
2024/01/21 07:52:33;;;;;;;4.23;3.77;;;20.60;52.00;;;;;;5069698;28;20171;-71
2024/01/21 07:54:58;;;;;;;5.10;4.20;;;20.60;51.90;;;;;;5070354;28;20413;-71
2024/01/21 07:57:24;;;;;;;6.37;3.60;;;20.60;51.80;;;;;;5070363;28;20253;-71
2024/01/21 07:59:49;;;;;;;4.43;3.27;;;20.60;51.80;;;;;;5070241;28;20205;-71
2024/01/21 08:02:16;;;;;;;5.20;3.43;;;20.60;51.70;;;;;;5070327;28;20196;-71
2024/01/21 08:04:42;;;;;;;4.40;3.93;;;20.60;51.70;;;;;;5070546;28;20174;-71
2024/01/21 08:07:08;;;;;;;4.23;3.50;;;20.60;51.70;;;;;;5069798;28;20904;-71
2024/01/21 08:09:34;;;;;;;5.70;3.43;;;20.60;51.70;;;;;;5070126;28;20230;-71
2024/01/21 08:12:00;;;;;;;3.77;3.47;;;20.60;51.70;;;;;;5070271;28;20860;-71
2024/01/21 08:14:26;;;;;;;5.63;3.40;;;20.60;51.80;;;;;;5070185;28;20175;-70
2024/01/21 08:16:52;;;;;;;3.27;2.80;;;20.60;51.80;;;;;;5070117;28;20504;-70
2024/01/21 08:19:19;;;;;;;3.70;3.30;;;20.60;51.80;;;;;;5070207;28;20240;-70
2024/01/21 08:21:46;;;;;;;4.67;3.63;;;20.60;51.80;;;;;;5070186;28;20512;-70
2024/01/21 08:24:11;;;;;;;6.80;3.40;;;20.60;51.80;;;;;;5069989;28;21006;-71
2024/01/21 08:26:37;;;;;;;3.83;3.27;;;20.60;51.80;;;;;;5051987;28;20516;-70
2024/01/21 08:29:03;;;;;;;5.40;3.10;;;20.60;51.90;;;;;;5069904;28;20275;-71
2024/01/21 08:31:29;;;;;;;4.13;3.17;;;20.60;51.80;;;;;;5069973;28;20171;-71
2024/01/21 08:33:54;;;;;;;7.33;3.17;;;20.60;51.90;;;;;;5069984;28;20431;-71
2024/01/21 08:36:20;;;;;;;5.27;3.60;;;20.60;51.90;;;;;;5069883;28;20573;-71
2024/01/21 08:38:45;;;;;;;3.90;3.53;;;20.60;51.90;;;;;;5069834;28;20175;-71
2024/01/21 08:41:11;;;;;;;5.27;3.60;;;20.60;51.90;;;;;;5069912;28;20174;-72
2024/01/21 08:43:37;;;;;;;5.00;3.43;;;20.60;52.00;;;;;;5070207;28;20519;-71
2024/01/21 08:46:03;;;;;;;3.30;3.00;;;20.60;52.00;;;;;;5069973;28;20177;-71
2024/01/21 08:48:29;;;;;;;4.27;3.10;;;20.60;52.00;;;;;;5069680;28;20206;-72
2024/01/21 08:50:55;;;;;;;3.53;3.17;;;20.60;52.00;;;;;;5051722;28;20439;-71
2024/01/21 08:53:20;;;;;;;3.83;3.47;;;20.70;52.60;;;;;;5069877;28;20181;-71
2024/01/21 08:55:47;;;;;;;7.70;3.57;;;20.70;52.00;;;;;;5070017;28;20413;-71
2024/01/21 08:58:13;;;;;;;4.30;3.53;;;20.60;51.90;;;;;;5069780;28;20189;-72
2024/01/21 09:00:38;;;;;;;4.90;3.20;;;20.70;52.00;;;;;;5069714;28;20448;-71
2024/01/21 09:03:05;;;;;;;3.83;3.30;;;20.70;52.00;;;;;;5070000;28;20185;-71
2024/01/21 09:05:30;;;;;;;5.93;3.13;;;20.70;52.00;;;;;;5069892;28;20178;-71
2024/01/21 09:07:56;;;;;;;4.33;3.37;;;20.70;52.00;;;;;;5069603;28;20982;-71
2024/01/21 09:10:22;;;;;;;3.37;2.90;;;20.60;52.00;;;;;;5069594;28;20190;-71
2024/01/21 09:12:47;;;;;;;5.17;3.60;;;20.60;52.00;;;;;;5069575;28;20173;-72
2024/01/21 09:15:13;;;;;;;4.67;3.40;;;20.60;52.00;;;;;;5069648;28;20179;-71
2024/01/21 09:17:39;;;;;;;4.20;3.40;;;20.60;52.00;;;;;;5069541;28;20771;-70
2024/01/21 09:20:05;;;;;;;5.53;3.37;;;20.60;52.00;;;;;;5072301;28;20206;-71
2024/01/21 09:22:30;;;;;;;3.67;3.17;;;20.60;52.00;;;;;;5073241;28;20184;-71
2024/01/21 09:24:56;;;;;;;3.83;2.90;;;20.70;52.10;;;;;;5073195;28;20417;-72
2024/01/21 09:27:23;;;;;;;3.47;3.00;;;20.60;52.00;;;;;;5073095;28;20228;-71
2024/01/21 09:29:48;;;;;;;3.40;3.10;;;20.60;52.00;;;;;;5073090;28;20209;-71
2024/01/21 09:32:14;;;;;;;6.93;3.73;;;20.60;52.10;;;;;;5073067;28;20488;-71
2024/01/21 09:34:39;;;;;;;3.80;3.40;;;20.60;52.00;;;;;;5073281;28;20705;-71
2024/01/21 09:37:06;;;;;;;5.20;3.63;;;20.60;52.10;;;;;;5073059;28;20175;-70
2024/01/21 09:39:31;;;;;;;4.40;3.57;;;20.60;52.10;;;;;;5072855;28;20194;-71
2024/01/21 09:41:59;;;;;;;4.10;3.77;;;20.60;52.10;;;;;;5072827;28;20495;-71
2024/01/21 09:44:28;;;;;;;4.03;3.63;;;20.60;52.10;;;;;;5072884;28;20178;-71
2024/01/21 09:46:58;;;;;;;3.77;2.70;;;20.60;52.10;;;;;;5072764;28;20408;-71
2024/01/21 09:49:25;;;;;;;4.73;4.30;;;20.60;52.10;;;;;;5072571;28;20965;-71
2024/01/21 09:51:52;;;;;;;3.30;2.83;;;20.60;52.10;;;;;;5072626;28;20405;-71
2024/01/21 09:54:22;;;;;;;6.10;3.03;;;20.60;52.10;;;;;;5072627;28;20396;-71
2024/01/21 09:56:48;;;;;;;3.00;2.53;;;20.60;52.10;;;;;;5072941;28;20462;-70
2024/01/21 09:59:15;;;;;;;5.10;3.10;;;20.60;52.20;;;;;;5072425;28;20489;-71
2024/01/21 10:01:41;;;;;;;3.83;2.67;;;20.60;52.20;;;;;;5072483;28;20412;-70
2024/01/21 10:04:08;;;;;;;3.47;3.17;;;20.60;52.20;;;;;;5072407;28;20415;-71
2024/01/21 10:06:35;;;;;;;4.17;3.27;;;20.60;52.20;;;;;;5072406;28;20566;-69
2024/01/21 10:09:16;;;;;;;3.60;3.00;;;20.60;52.20;;;;;;5072268;28;20594;-70
2024/01/21 10:11:42;;;;;;;3.20;2.90;;;20.60;52.20;;;;;;5072246;28;20975;-70
2024/01/21 10:14:08;;;;;;;3.33;3.03;;;20.60;52.20;;;;;;5072270;28;20495;-70
2024/01/21 10:16:33;;;;;;;4.03;3.13;;;20.60;52.20;;;;;;5072084;28;20206;-71
2024/01/21 10:19:00;;;;;;;3.13;2.83;;;20.60;52.20;;;;;;5072399;28;20420;-70
2024/01/21 10:21:28;;;;;;;3.03;2.73;;;20.60;52.20;;;;;;5072355;28;20268;-70
2024/01/21 10:23:53;;;;;;;3.80;3.10;;;20.60;52.20;;;;;;5072140;28;20444;-70
2024/01/21 10:26:19;;;;;;;5.10;3.60;;;20.60;52.20;;;;;;5072051;28;20175;-71
2024/01/21 10:28:44;;;;;;;4.80;3.00;;;20.60;52.20;;;;;;5071944;28;20194;-71
2024/01/21 10:31:10;;;;;;;5.30;4.80;;;20.60;52.20;;;;;;5071495;28;20202;-70
2024/01/21 10:33:35;;;;;;;4.83;4.00;;;20.60;52.20;;;;;;5072001;28;20182;-71
2024/01/21 10:36:02;;;;;;;5.90;5.27;;;20.60;52.20;;;;;;5072006;28;20178;-70
2024/01/21 10:38:35;;;;;;;4.93;4.53;;;20.60;52.20;;;;;;5072104;28;20186;-71
2024/01/21 10:41:03;;;;;;;4.23;3.83;;;20.60;52.20;;;;;;5071923;28;20443;-71
2024/01/21 10:43:30;;;;;;;4.10;3.13;;;20.60;52.20;;;;;;5071842;28;20420;-70
2024/01/21 10:45:57;;;;;;;4.10;3.10;;;20.60;52.20;;;;;;5071320;28;21435;-70
2024/01/21 10:48:23;;;;;;;3.20;3.00;;;20.60;52.20;;;;;;5071486;28;20997;-70
2024/01/21 10:50:51;;;;;;;4.00;3.60;;;20.60;52.20;;;;;;5071528;28;20436;-71
2024/01/21 10:53:17;;;;;;;3.40;3.10;;;20.60;52.20;;;;;;5071786;28;20428;-70
2024/01/21 10:55:44;;;;;;;4.47;3.30;;;20.60;52.20;;;;;;5071564;28;20853;-70
2024/01/21 10:58:10;;;;;;;3.80;3.33;;;20.60;52.20;;;;;;5071445;28;20179;-71
2024/01/21 11:00:40;;;;;;;5.27;4.13;;;20.60;52.20;;;;;;5071632;28;20451;-71
2024/01/21 11:03:26;;;;;;;14.93;5.60;;;20.60;52.10;;;;;;5071233;28;20477;-69
2024/01/21 11:05:58;;;;;;;8.50;6.07;;;20.60;51.60;;;;;;5074088;28;20451;-70
2024/01/21 11:08:26;;;;;;;7.57;5.83;;;20.60;51.40;;;;;;5080878;28;20456;-70
2024/01/21 11:11:01;;;;;;;7.60;4.70;;;20.50;51.40;;;;;;5079866;28;20526;-71
2024/01/21 11:13:45;;;;;;;5.93;5.33;;;20.50;51.60;;;;;;5081482;28;20466;-70
2024/01/21 11:16:28;;;;;;;5.60;4.03;;;20.60;51.70;;;;;;5081588;28;20417;-71
2024/01/21 11:18:57;;;;;;;4.30;3.90;;;20.50;51.70;;;;;;5081768;28;20499;-70
2024/01/21 11:21:24;;;;;;;4.87;3.77;;;20.50;51.70;;;;;;5080486;28;20413;-70
2024/01/21 11:24:06;;;;;;;11.23;4.13;;;20.50;51.80;;;;;;5079855;28;20926;-70
2024/01/21 11:26:37;;;;;;;3.40;3.10;;;20.50;51.70;;;;;;5081663;28;20420;-71
2024/01/21 11:29:21;;;;;;;4.57;3.77;;;20.50;51.80;;;;;;5082708;28;20475;-70
2024/01/21 11:31:51;;;;;;;4.60;3.70;;;20.50;51.80;;;;;;5091310;28;20399;-69
2024/01/21 11:34:17;;;;;;;4.30;3.90;;;20.50;51.80;;;;;;5091125;28;20418;-68
2024/01/21 11:36:44;;;;;;;4.60;3.93;;;20.50;51.80;;;;;;5091006;28;20407;-69
2024/01/21 11:39:10;;;;;;;3.83;3.37;;;20.50;51.80;;;;;;5090935;28;20518;-70
2024/01/21 11:41:43;;;;;;;4.03;3.63;;;20.50;51.80;;;;;;5090227;28;20521;-70
2024/01/21 11:44:22;;;;;;;4.20;3.73;;;20.50;51.80;;;;;;5090825;28;20923;-69
2024/01/21 11:46:48;;;;;;;4.07;3.73;;;20.50;51.80;;;;;;5073462;28;20776;-70
2024/01/21 11:49:13;;;;;;;6.10;3.80;;;20.50;51.80;;;;;;5091242;28;21016;-70
2024/01/21 11:51:39;;;;;;;4.27;3.87;;;20.50;51.80;;;;;;5090992;28;20416;-70
2024/01/21 11:54:06;;;;;;;4.13;3.70;;;20.50;51.80;;;;;;5090717;28;20176;-69
2024/01/21 11:56:32;;;;;;;6.40;4.20;;;20.60;51.90;;;;;;5090794;28;20411;-70
2024/01/21 11:58:58;;;;;;;3.00;2.70;;;20.50;51.80;;;;;;5090415;28;20414;-69
2024/01/21 12:01:27;;;;;;;3.70;3.20;;;20.60;52.00;;;;;;5090639;28;20416;-68
2024/01/21 12:03:55;;;;;;;4.10;3.70;;;20.50;51.90;;;;;;5090485;28;20641;-70
2024/01/21 12:06:21;;;;;;;4.50;3.97;;;20.50;51.90;;;;;;5090794;28;20416;-70
2024/01/21 12:08:48;;;;;;;5.57;3.97;;;20.50;51.90;;;;;;5090283;28;20462;-70
2024/01/21 12:11:14;;;;;;;4.40;3.80;;;20.50;51.80;;;;;;5072164;28;21142;-70
2024/01/21 12:13:40;;;;;;;4.60;3.37;;;20.60;51.90;;;;;;5090401;28;20416;-70
2024/01/21 12:16:11;;;;;;;3.97;3.57;;;20.60;51.90;;;;;;5072232;28;20243;-69
2024/01/21 12:18:41;;;;;;;4.20;3.40;;;20.60;51.90;;;;;;5090332;28;20447;-69
2024/01/21 12:21:07;;;;;;;4.20;3.60;;;20.60;51.90;;;;;;5090363;28;21055;-70
2024/01/21 12:23:42;;;;;;;5.60;3.80;;;20.50;52.40;;;;;;5090405;28;20419;-70
2024/01/21 12:26:08;;;;;;;3.63;3.33;;;20.60;51.90;;;;;;5090466;28;20460;-69
2024/01/21 12:28:34;;;;;;;4.40;4.00;;;20.50;51.80;;;;;;5090173;28;20450;-69
2024/01/21 12:31:00;;;;;;;4.20;3.60;;;20.50;51.80;;;;;;5090431;28;20439;-69
2024/01/21 12:33:26;;;;;;;3.83;3.43;;;20.50;51.80;;;;;;5090156;28;20177;-70
2024/01/21 12:35:52;;;;;;;6.00;3.40;;;20.60;51.90;;;;;;5090310;28;20176;-70
2024/01/21 12:38:19;;;;;;;3.47;3.17;;;20.50;51.80;;;;;;5090824;28;20185;-70
2024/01/21 12:40:44;;;;;;;3.90;3.50;;;20.50;51.90;;;;;;5090750;28;20439;-69